sensor_id;sensor_type;location;lat;lon;timestamp;pressure;altitude;pressure_sealevel;temperature;humidity
83118;BME280;73000;51.784;4.660;2023-12-20T00:00:56;101853.06;;;9.04;78.31
83118;BME280;73000;51.784;4.660;2023-12-20T00:03:21;101857.09;;;9.18;78.44
83118;BME280;73000;51.784;4.660;2023-12-20T00:05:47;101861.41;;;9.09;78.03
83118;BME280;73000;51.784;4.660;2023-12-20T00:08:13;101844.19;;;9.02;77.92
83118;BME280;73000;51.784;4.660;2023-12-20T00:10:38;101861.44;;;8.92;78.37
83118;BME280;73000;51.784;4.660;2023-12-20T00:13:03;101866.13;;;8.92;78.34
83118;BME280;73000;51.784;4.660;2023-12-20T00:15:29;101858.44;;;8.77;77.96
83118;BME280;73000;51.784;4.660;2023-12-20T00:17:54;101875.09;;;8.82;78.64
83118;BME280;73000;51.784;4.660;2023-12-20T00:20:20;101856.66;;;8.88;78.51
83118;BME280;73000;51.784;4.660;2023-12-20T00:22:45;101862.78;;;8.90;78.59
83118;BME280;73000;51.784;4.660;2023-12-20T00:25:11;101860.75;;;8.85;78.46
83118;BME280;73000;51.784;4.660;2023-12-20T00:27:36;101859.81;;;8.96;78.64
83118;BME280;73000;51.784;4.660;2023-12-20T00:30:02;101871.72;;;8.97;78.28
83118;BME280;73000;51.784;4.660;2023-12-20T00:32:27;101871.22;;;9.00;78.43
83118;BME280;73000;51.784;4.660;2023-12-20T00:34:55;101866.94;;;8.92;78.37
83118;BME280;73000;51.784;4.660;2023-12-20T00:37:21;101857.56;;;8.93;77.97
83118;BME280;73000;51.784;4.660;2023-12-20T00:39:46;101866.59;;;9.05;77.96
83118;BME280;73000;51.784;4.660;2023-12-20T00:42:12;101859.41;;;9.04;77.88
83118;BME280;73000;51.784;4.660;2023-12-20T00:44:37;101857.47;;;9.05;77.24
83118;BME280;73000;51.784;4.660;2023-12-20T00:47:03;101858.47;;;8.99;77.94
83118;BME280;73000;51.784;4.660;2023-12-20T00:49:28;101863.41;;;9.13;78.23
83118;BME280;73000;51.784;4.660;2023-12-20T00:51:56;101855.47;;;9.00;77.76
83118;BME280;73000;51.784;4.660;2023-12-20T00:54:21;101849.63;;;8.97;77.56
83118;BME280;73000;51.784;4.660;2023-12-20T00:56:46;101860.06;;;8.95;77.75
83118;BME280;73000;51.784;4.660;2023-12-20T00:59:12;101862.16;;;9.04;77.82
83118;BME280;73000;51.784;4.660;2023-12-20T01:01:37;101862.41;;;9.03;77.67
83118;BME280;73000;51.784;4.660;2023-12-20T01:04:03;101846.88;;;8.97;77.77
83118;BME280;73000;51.784;4.660;2023-12-20T01:06:29;101863.63;;;8.90;77.30
83118;BME280;73000;51.784;4.660;2023-12-20T01:08:54;101868.22;;;8.85;77.92
83118;BME280;73000;51.784;4.660;2023-12-20T01:11:19;101866.28;;;8.85;77.94
83118;BME280;73000;51.784;4.660;2023-12-20T01:13:44;101867.56;;;8.78;77.83
83118;BME280;73000;51.784;4.660;2023-12-20T01:16:11;101863.63;;;8.74;77.97
83118;BME280;73000;51.784;4.660;2023-12-20T01:18:37;101861.94;;;8.73;77.53
83118;BME280;73000;51.784;4.660;2023-12-20T01:21:02;101869.81;;;8.81;77.71
83118;BME280;73000;51.784;4.660;2023-12-20T01:23:28;101852.34;;;8.75;77.83
83118;BME280;73000;51.784;4.660;2023-12-20T01:25:56;101857.34;;;8.78;77.46
83118;BME280;73000;51.784;4.660;2023-12-20T01:28:21;101849.59;;;8.75;77.36
83118;BME280;73000;51.784;4.660;2023-12-20T01:30:47;101846.06;;;8.80;78.02
83118;BME280;73000;51.784;4.660;2023-12-20T01:33:12;101852.84;;;8.72;77.83
83118;BME280;73000;51.784;4.660;2023-12-20T01:35:38;101849.84;;;8.74;77.45
83118;BME280;73000;51.784;4.660;2023-12-20T01:38:03;101848.75;;;8.75;77.85
83118;BME280;73000;51.784;4.660;2023-12-20T01:40:28;101849.91;;;8.79;77.72
83118;BME280;73000;51.784;4.660;2023-12-20T01:43:01;101847.91;;;8.74;78.45
83118;BME280;73000;51.784;4.660;2023-12-20T01:45:27;101846.41;;;8.83;78.18
83118;BME280;73000;51.784;4.660;2023-12-20T01:47:54;101849.59;;;8.75;78.24
83118;BME280;73000;51.784;4.660;2023-12-20T01:50:21;101853.09;;;8.87;78.10
83118;BME280;73000;51.784;4.660;2023-12-20T01:52:47;101852.34;;;8.92;78.12
83118;BME280;73000;51.784;4.660;2023-12-20T01:55:13;101857.47;;;9.05;77.58
83118;BME280;73000;51.784;4.660;2023-12-20T01:57:43;101841.31;;;9.13;77.08
83118;BME280;73000;51.784;4.660;2023-12-20T02:00:10;101854.94;;;9.20;77.40
83118;BME280;73000;51.784;4.660;2023-12-20T02:02:39;101850.75;;;9.17;76.97
83118;BME280;73000;51.784;4.660;2023-12-20T02:05:06;101852.19;;;9.20;76.94
83118;BME280;73000;51.784;4.660;2023-12-20T02:07:31;101852.38;;;9.13;76.95
83118;BME280;73000;51.784;4.660;2023-12-20T02:09:59;101852.22;;;9.25;76.57
83118;BME280;73000;51.784;4.660;2023-12-20T02:12:24;101857.50;;;9.26;76.80
83118;BME280;73000;51.784;4.660;2023-12-20T02:14:49;101844.09;;;9.35;76.56
83118;BME280;73000;51.784;4.660;2023-12-20T02:17:20;101851.28;;;9.36;77.09
83118;BME280;73000;51.784;4.660;2023-12-20T02:19:45;101839.03;;;9.27;76.77
83118;BME280;73000;51.784;4.660;2023-12-20T02:22:11;101843.66;;;9.21;77.03
83118;BME280;73000;51.784;4.660;2023-12-20T02:24:37;101846.84;;;9.13;77.23
83118;BME280;73000;51.784;4.660;2023-12-20T02:27:05;101846.00;;;9.34;77.02
83118;BME280;73000;51.784;4.660;2023-12-20T02:29:32;101855.28;;;9.45;76.71
83118;BME280;73000;51.784;4.660;2023-12-20T02:31:57;101855.66;;;9.32;76.25
83118;BME280;73000;51.784;4.660;2023-12-20T02:34:23;101861.41;;;9.52;76.73
83118;BME280;73000;51.784;4.660;2023-12-20T02:36:48;101861.06;;;9.43;76.55
83118;BME280;73000;51.784;4.660;2023-12-20T02:39:14;101864.47;;;9.50;76.40
83118;BME280;73000;51.784;4.660;2023-12-20T02:41:42;101854.19;;;9.46;75.76
83118;BME280;73000;51.784;4.660;2023-12-20T02:44:08;101848.06;;;9.44;76.49
83118;BME280;73000;51.784;4.660;2023-12-20T02:46:33;101847.28;;;9.70;76.29
83118;BME280;73000;51.784;4.660;2023-12-20T02:48:58;101848.09;;;9.65;75.40
83118;BME280;73000;51.784;4.660;2023-12-20T02:51:23;101839.66;;;9.55;75.63
83118;BME280;73000;51.784;4.660;2023-12-20T02:53:49;101834.19;;;9.60;75.66
83118;BME280;73000;51.784;4.660;2023-12-20T02:56:14;101831.94;;;9.57;76.18
83118;BME280;73000;51.784;4.660;2023-12-20T02:58:40;101838.81;;;9.55;75.90
83118;BME280;73000;51.784;4.660;2023-12-20T03:01:05;101838.25;;;9.53;76.08
83118;BME280;73000;51.784;4.660;2023-12-20T03:03:33;101817.31;;;9.57;75.99
83118;BME280;73000;51.784;4.660;2023-12-20T03:05:58;101835.16;;;9.71;75.54
83118;BME280;73000;51.784;4.660;2023-12-20T03:08:23;101817.69;;;9.65;75.48
83118;BME280;73000;51.784;4.660;2023-12-20T03:10:49;101805.81;;;9.65;75.30
83118;BME280;73000;51.784;4.660;2023-12-20T03:13:14;101815.97;;;9.59;75.77
83118;BME280;73000;51.784;4.660;2023-12-20T03:15:40;101821.50;;;9.59;75.79
83118;BME280;73000;51.784;4.660;2023-12-20T03:18:05;101832.47;;;9.54;75.31
83118;BME280;73000;51.784;4.660;2023-12-20T03:20:30;101816.13;;;9.74;76.22
83118;BME280;73000;51.784;4.660;2023-12-20T03:23:00;101827.13;;;9.69;75.32
83118;BME280;73000;51.784;4.660;2023-12-20T03:25:25;101820.72;;;9.64;75.08
83118;BME280;73000;51.784;4.660;2023-12-20T03:27:53;101809.03;;;9.57;75.92
83118;BME280;73000;51.784;4.660;2023-12-20T03:30:31;101821.28;;;9.66;75.96
83118;BME280;73000;51.784;4.660;2023-12-20T03:32:56;101816.34;;;9.68;75.55
83118;BME280;73000;51.784;4.660;2023-12-20T03:35:21;101806.31;;;9.62;75.92
83118;BME280;73000;51.784;4.660;2023-12-20T03:37:47;101806.22;;;9.78;75.08
83118;BME280;73000;51.784;4.660;2023-12-20T03:40:12;101809.59;;;9.59;75.38
83118;BME280;73000;51.784;4.660;2023-12-20T03:42:37;101816.97;;;9.75;74.80
83118;BME280;73000;51.784;4.660;2023-12-20T03:45:03;101828.78;;;9.70;75.43
83118;BME280;73000;51.784;4.660;2023-12-20T03:47:30;101826.88;;;9.71;74.99
83118;BME280;73000;51.784;4.660;2023-12-20T03:49:56;101822.94;;;9.67;74.75
83118;BME280;73000;51.784;4.660;2023-12-20T03:52:21;101825.66;;;9.62;74.91
83118;BME280;73000;51.784;4.660;2023-12-20T03:54:46;101813.97;;;9.55;74.69
83118;BME280;73000;51.784;4.660;2023-12-20T03:57:12;101807.88;;;9.53;75.24
83118;BME280;73000;51.784;4.660;2023-12-20T03:59:37;101796.25;;;9.51;74.72
83118;BME280;73000;51.784;4.660;2023-12-20T04:02:03;101810.78;;;9.41;75.40
83118;BME280;73000;51.784;4.660;2023-12-20T04:04:28;101800.56;;;9.42;74.99
83118;BME280;73000;51.784;4.660;2023-12-20T04:06:54;101788.59;;;9.31;75.44
83118;BME280;73000;51.784;4.660;2023-12-20T04:09:19;101803.91;;;9.22;75.14
83118;BME280;73000;51.784;4.660;2023-12-20T04:11:44;101800.38;;;9.27;75.28
83118;BME280;73000;51.784;4.660;2023-12-20T04:14:12;101805.91;;;9.27;75.05
83118;BME280;73000;51.784;4.660;2023-12-20T04:16:37;101811.44;;;9.27;74.68
83118;BME280;73000;51.784;4.660;2023-12-20T04:19:04;101819.66;;;9.22;74.89
83118;BME280;73000;51.784;4.660;2023-12-20T04:21:29;101821.91;;;9.08;74.93
83118;BME280;73000;51.784;4.660;2023-12-20T04:23:54;101817.31;;;9.14;75.14
83118;BME280;73000;51.784;4.660;2023-12-20T04:26:20;101810.84;;;9.25;74.79
83118;BME280;73000;51.784;4.660;2023-12-20T04:28:45;101811.16;;;9.28;74.80
83118;BME280;73000;51.784;4.660;2023-12-20T04:31:10;101808.31;;;9.23;74.77
83118;BME280;73000;51.784;4.660;2023-12-20T04:33:35;101811.88;;;9.19;74.80
83118;BME280;73000;51.784;4.660;2023-12-20T04:36:01;101814.88;;;9.17;74.95
83118;BME280;73000;51.784;4.660;2023-12-20T04:38:26;101813.72;;;9.13;75.30
83118;BME280;73000;51.784;4.660;2023-12-20T04:40:51;101818.59;;;9.06;75.14
83118;BME280;73000;51.784;4.660;2023-12-20T04:43:17;101823.97;;;9.18;75.21
83118;BME280;73000;51.784;4.660;2023-12-20T04:45:42;101818.34;;;9.08;75.11
83118;BME280;73000;51.784;4.660;2023-12-20T04:48:07;101813.94;;;9.07;74.99
83118;BME280;73000;51.784;4.660;2023-12-20T04:50:35;101812.84;;;9.08;75.71
83118;BME280;73000;51.784;4.660;2023-12-20T04:53:03;101805.56;;;9.02;75.50
83118;BME280;73000;51.784;4.660;2023-12-20T04:55:31;101804.03;;;9.11;75.29
83118;BME280;73000;51.784;4.660;2023-12-20T04:57:56;101807.22;;;9.03;75.45
83118;BME280;73000;51.784;4.660;2023-12-20T05:00:21;101806.88;;;9.16;74.96
83118;BME280;73000;51.784;4.660;2023-12-20T05:02:48;101800.44;;;9.10;74.81
83118;BME280;73000;51.784;4.660;2023-12-20T05:05:13;101805.66;;;9.07;74.70
83118;BME280;73000;51.784;4.660;2023-12-20T05:07:40;101788.75;;;9.03;74.71
83118;BME280;73000;51.784;4.660;2023-12-20T05:10:06;101795.25;;;8.76;75.15
83118;BME280;73000;51.784;4.660;2023-12-20T05:12:33;101795.66;;;8.84;75.74
83118;BME280;73000;51.784;4.660;2023-12-20T05:14:58;101790.91;;;8.80;75.76
83118;BME280;73000;51.784;4.660;2023-12-20T05:17:24;101798.09;;;8.81;75.07
83118;BME280;73000;51.784;4.660;2023-12-20T05:19:52;101800.72;;;8.92;75.17
83118;BME280;73000;51.784;4.660;2023-12-20T05:22:19;101804.88;;;8.73;74.95
83118;BME280;73000;51.784;4.660;2023-12-20T05:24:44;101796.44;;;8.63;75.48
83118;BME280;73000;51.784;4.660;2023-12-20T05:27:10;101800.03;;;8.64;75.17
83118;BME280;73000;51.784;4.660;2023-12-20T05:29:36;101799.09;;;8.75;74.92
83118;BME280;73000;51.784;4.660;2023-12-20T05:32:01;101799.47;;;8.62;75.43
83118;BME280;73000;51.784;4.660;2023-12-20T05:34:32;101799.19;;;8.63;75.83
83118;BME280;73000;51.784;4.660;2023-12-20T05:36:57;101810.50;;;8.62;75.57
83118;BME280;73000;51.784;4.660;2023-12-20T05:39:23;101806.16;;;8.66;76.19
83118;BME280;73000;51.784;4.660;2023-12-20T05:41:48;101803.97;;;8.68;75.83
83118;BME280;73000;51.784;4.660;2023-12-20T05:44:14;101803.03;;;8.79;75.03
83118;BME280;73000;51.784;4.660;2023-12-20T05:46:39;101800.78;;;8.76;74.84
83118;BME280;73000;51.784;4.660;2023-12-20T05:49:05;101803.31;;;8.61;75.50
83118;BME280;73000;51.784;4.660;2023-12-20T05:51:31;101806.28;;;8.76;75.43
83118;BME280;73000;51.784;4.660;2023-12-20T05:53:56;101799.78;;;8.65;75.34
83118;BME280;73000;51.784;4.660;2023-12-20T05:56:23;101802.13;;;8.57;76.17
83118;BME280;73000;51.784;4.660;2023-12-20T05:58:51;101795.63;;;8.63;76.00
83118;BME280;73000;51.784;4.660;2023-12-20T06:01:22;101799.34;;;8.73;75.50
83118;BME280;73000;51.784;4.660;2023-12-20T06:03:47;101796.09;;;8.76;75.88
83118;BME280;73000;51.784;4.660;2023-12-20T06:06:12;101793.84;;;8.73;75.99
83118;BME280;73000;51.784;4.660;2023-12-20T06:08:38;101790.19;;;8.51;75.73
83118;BME280;73000;51.784;4.660;2023-12-20T06:11:04;101794.72;;;8.57;76.11
83118;BME280;73000;51.784;4.660;2023-12-20T06:13:30;101790.59;;;8.76;75.73
83118;BME280;73000;51.784;4.660;2023-12-20T06:15:55;101789.84;;;8.81;75.86
83118;BME280;73000;51.784;4.660;2023-12-20T06:18:21;101793.41;;;8.81;76.02
83118;BME280;73000;51.784;4.660;2023-12-20T06:20:47;101799.28;;;8.85;75.67
83118;BME280;73000;51.784;4.660;2023-12-20T06:23:12;101801.94;;;8.80;75.82
83118;BME280;73000;51.784;4.660;2023-12-20T06:25:38;101804.38;;;8.76;76.15
83118;BME280;73000;51.784;4.660;2023-12-20T06:28:03;101807.31;;;8.70;76.07
83118;BME280;73000;51.784;4.660;2023-12-20T06:30:28;101806.78;;;8.73;75.79
83118;BME280;73000;51.784;4.660;2023-12-20T06:32:54;101813.22;;;8.78;75.85
83118;BME280;73000;51.784;4.660;2023-12-20T06:35:20;101805.28;;;8.82;76.53
83118;BME280;73000;51.784;4.660;2023-12-20T06:37:45;101801.41;;;8.99;75.69
83118;BME280;73000;51.784;4.660;2023-12-20T06:40:11;101805.56;;;9.02;75.95
83118;BME280;73000;51.784;4.660;2023-12-20T06:42:36;101789.97;;;9.12;75.27
83118;BME280;73000;51.784;4.660;2023-12-20T06:45:02;101794.47;;;9.18;75.63
83118;BME280;73000;51.784;4.660;2023-12-20T06:47:27;101788.75;;;9.25;75.22
83118;BME280;73000;51.784;4.660;2023-12-20T06:49:52;101773.41;;;9.12;75.33
83118;BME280;73000;51.784;4.660;2023-12-20T06:52:17;101780.28;;;9.10;75.35
83118;BME280;73000;51.784;4.660;2023-12-20T06:54:46;101778.66;;;9.14;75.48
83118;BME280;73000;51.784;4.660;2023-12-20T06:57:11;101773.00;;;9.20;75.30
83118;BME280;73000;51.784;4.660;2023-12-20T06:59:40;101772.34;;;9.13;74.84
83118;BME280;73000;51.784;4.660;2023-12-20T07:02:06;101777.06;;;9.18;75.13
83118;BME280;73000;51.784;4.660;2023-12-20T07:04:31;101779.72;;;9.29;75.11
83118;BME280;73000;51.784;4.660;2023-12-20T07:06:56;101781.72;;;9.34;75.03
83118;BME280;73000;51.784;4.660;2023-12-20T07:09:25;101771.41;;;9.51;73.98
83118;BME280;73000;51.784;4.660;2023-12-20T07:11:50;101781.16;;;9.37;74.41
83118;BME280;73000;51.784;4.660;2023-12-20T07:14:16;101788.22;;;9.49;74.12
83118;BME280;73000;51.784;4.660;2023-12-20T07:16:41;101784.00;;;9.42;74.02
83118;BME280;73000;51.784;4.660;2023-12-20T07:19:06;101775.66;;;9.37;74.18
83118;BME280;73000;51.784;4.660;2023-12-20T07:21:31;101788.22;;;9.49;74.41
83118;BME280;73000;51.784;4.660;2023-12-20T07:23:57;101794.97;;;9.37;74.45
83118;BME280;73000;51.784;4.660;2023-12-20T07:26:22;101790.81;;;9.34;73.92
83118;BME280;73000;51.784;4.660;2023-12-20T07:28:48;101778.94;;;9.34;75.17
83118;BME280;73000;51.784;4.660;2023-12-20T07:31:15;101775.19;;;9.23;74.22
83118;BME280;73000;51.784;4.660;2023-12-20T07:33:41;101776.25;;;9.17;74.80
83118;BME280;73000;51.784;4.660;2023-12-20T07:36:07;101774.84;;;9.15;74.99
83118;BME280;73000;51.784;4.660;2023-12-20T07:38:33;101774.97;;;9.03;75.20
83118;BME280;73000;51.784;4.660;2023-12-20T07:40:58;101785.03;;;9.14;75.60
83118;BME280;73000;51.784;4.660;2023-12-20T07:43:24;101775.75;;;9.20;75.04
83118;BME280;73000;51.784;4.660;2023-12-20T07:45:49;101785.94;;;9.20;75.00
83118;BME280;73000;51.784;4.660;2023-12-20T07:48:15;101778.63;;;9.09;74.48
83118;BME280;73000;51.784;4.660;2023-12-20T07:50:41;101786.91;;;9.09;75.32
83118;BME280;73000;51.784;4.660;2023-12-20T07:53:07;101781.56;;;9.02;75.31
83118;BME280;73000;51.784;4.660;2023-12-20T07:55:32;101782.94;;;9.21;74.46
83118;BME280;73000;51.784;4.660;2023-12-20T07:57:59;101779.53;;;9.14;74.47
83118;BME280;73000;51.784;4.660;2023-12-20T08:00:24;101794.63;;;9.07;75.02
83118;BME280;73000;51.784;4.660;2023-12-20T08:02:49;101787.41;;;9.06;75.20
83118;BME280;73000;51.784;4.660;2023-12-20T08:05:15;101784.34;;;9.02;75.13
83118;BME280;73000;51.784;4.660;2023-12-20T08:07:40;101791.91;;;9.12;75.00
83118;BME280;73000;51.784;4.660;2023-12-20T08:10:06;101798.53;;;9.11;74.92
83118;BME280;73000;51.784;4.660;2023-12-20T08:12:31;101796.91;;;9.15;75.28
83118;BME280;73000;51.784;4.660;2023-12-20T08:14:56;101793.97;;;9.21;75.00
83118;BME280;73000;51.784;4.660;2023-12-20T08:17:22;101804.34;;;9.36;74.82
83118;BME280;73000;51.784;4.660;2023-12-20T08:19:48;101803.78;;;9.34;75.09
83118;BME280;73000;51.784;4.660;2023-12-20T08:22:14;101808.88;;;9.20;76.29
83118;BME280;73000;51.784;4.660;2023-12-20T08:24:39;101804.16;;;9.42;75.05
83118;BME280;73000;51.784;4.660;2023-12-20T08:27:04;101802.03;;;9.49;75.09
83118;BME280;73000;51.784;4.660;2023-12-20T08:29:30;101797.91;;;9.52;75.07
83118;BME280;73000;51.784;4.660;2023-12-20T08:31:56;101785.78;;;9.53;75.39
83118;BME280;73000;51.784;4.660;2023-12-20T08:34:25;101803.78;;;9.55;74.90
83118;BME280;73000;51.784;4.660;2023-12-20T08:36:50;101786.44;;;9.60;74.88
83118;BME280;73000;51.784;4.660;2023-12-20T08:39:16;101789.63;;;9.52;75.21
83118;BME280;73000;51.784;4.660;2023-12-20T08:41:42;101787.75;;;9.79;75.09
83118;BME280;73000;51.784;4.660;2023-12-20T08:44:07;101782.59;;;9.66;75.02
83118;BME280;73000;51.784;4.660;2023-12-20T08:46:32;101787.25;;;9.87;73.81
83118;BME280;73000;51.784;4.660;2023-12-20T08:48:58;101790.06;;;9.92;74.17
83118;BME280;73000;51.784;4.660;2023-12-20T08:51:23;101798.88;;;10.10;73.98
83118;BME280;73000;51.784;4.660;2023-12-20T08:53:50;101797.69;;;10.06;74.31
83118;BME280;73000;51.784;4.660;2023-12-20T08:56:16;101801.22;;;10.02;74.13
83118;BME280;73000;51.784;4.660;2023-12-20T08:58:43;101808.63;;;10.23;73.20
83118;BME280;73000;51.784;4.660;2023-12-20T09:01:08;101803.91;;;10.18;72.96
83118;BME280;73000;51.784;4.660;2023-12-20T09:03:34;101817.28;;;10.31;73.47
83118;BME280;73000;51.784;4.660;2023-12-20T09:05:59;101812.50;;;10.22;73.79
83118;BME280;73000;51.784;4.660;2023-12-20T09:08:25;101811.19;;;10.03;74.39
83118;BME280;73000;51.784;4.660;2023-12-20T09:10:50;101803.31;;;10.16;73.54
83118;BME280;73000;51.784;4.660;2023-12-20T09:13:15;101801.56;;;10.05;74.71
83118;BME280;73000;51.784;4.660;2023-12-20T09:15:41;101801.16;;;10.18;73.88
83118;BME280;73000;51.784;4.660;2023-12-20T09:18:06;101788.13;;;10.19;74.47
83118;BME280;73000;51.784;4.660;2023-12-20T09:20:34;101795.38;;;10.25;73.81
83118;BME280;73000;51.784;4.660;2023-12-20T09:23:00;101786.50;;;10.23;74.51
83118;BME280;73000;51.784;4.660;2023-12-20T09:25:28;101773.03;;;10.31;73.88
83118;BME280;73000;51.784;4.660;2023-12-20T09:27:55;101779.44;;;10.37;73.79
83118;BME280;73000;51.784;4.660;2023-12-20T09:30:21;101785.00;;;10.42;73.60
83118;BME280;73000;51.784;4.660;2023-12-20T09:32:46;101779.94;;;10.29;73.40
83118;BME280;73000;51.784;4.660;2023-12-20T09:35:11;101778.66;;;10.41;73.84
83118;BME280;73000;51.784;4.660;2023-12-20T09:37:37;101774.91;;;10.62;73.56
83118;BME280;73000;51.784;4.660;2023-12-20T09:40:03;101784.59;;;10.60;72.44
83118;BME280;73000;51.784;4.660;2023-12-20T09:42:48;101780.44;;;10.57;72.83
83118;BME280;73000;51.784;4.660;2023-12-20T09:45:19;101788.91;;;10.46;72.60
83118;BME280;73000;51.784;4.660;2023-12-20T09:47:45;101783.34;;;10.41;73.25
83118;BME280;73000;51.784;4.660;2023-12-20T09:50:12;101790.72;;;10.67;72.75
83118;BME280;73000;51.784;4.660;2023-12-20T09:52:39;101787.06;;;10.56;72.92
83118;BME280;73000;51.784;4.660;2023-12-20T09:55:06;101784.59;;;10.60;72.64
83118;BME280;73000;51.784;4.660;2023-12-20T09:57:33;101786.34;;;10.71;72.80
83118;BME280;73000;51.784;4.660;2023-12-20T09:59:58;101798.44;;;10.65;73.21
83118;BME280;73000;51.784;4.660;2023-12-20T10:02:25;101794.91;;;10.69;72.75
83118;BME280;73000;51.784;4.660;2023-12-20T10:04:52;101790.84;;;10.82;71.99
83118;BME280;73000;51.784;4.660;2023-12-20T10:07:18;101790.34;;;10.95;72.25
83118;BME280;73000;51.784;4.660;2023-12-20T10:09:44;101789.19;;;10.86;71.54
83118;BME280;73000;51.784;4.660;2023-12-20T10:12:09;101785.66;;;10.95;71.30
83118;BME280;73000;51.784;4.660;2023-12-20T10:14:34;101777.09;;;10.97;72.19
83118;BME280;73000;51.784;4.660;2023-12-20T10:17:04;101774.91;;;10.99;71.45
83118;BME280;73000;51.784;4.660;2023-12-20T10:19:30;101769.34;;;10.99;72.25
83118;BME280;73000;51.784;4.660;2023-12-20T10:21:55;101788.47;;;11.05;72.49
83118;BME280;73000;51.784;4.660;2023-12-20T10:24:23;101776.03;;;11.13;71.78
83118;BME280;73000;51.784;4.660;2023-12-20T10:27:01;101782.69;;;11.12;71.51
83118;BME280;73000;51.784;4.660;2023-12-20T10:29:32;101779.72;;;11.33;71.50
83118;BME280;73000;51.784;4.660;2023-12-20T10:31:57;101781.63;;;11.18;72.23
83118;BME280;73000;51.784;4.660;2023-12-20T10:34:23;101782.75;;;11.27;71.67
83118;BME280;73000;51.784;4.660;2023-12-20T10:36:49;101767.47;;;11.14;71.32
83118;BME280;73000;51.784;4.660;2023-12-20T10:39:15;101775.84;;;11.24;71.57
83118;BME280;73000;51.784;4.660;2023-12-20T10:41:41;101767.81;;;11.28;71.09
83118;BME280;73000;51.784;4.660;2023-12-20T10:44:08;101774.13;;;11.13;71.83
83118;BME280;73000;51.784;4.660;2023-12-20T10:46:36;101778.88;;;11.28;71.62
83118;BME280;73000;51.784;4.660;2023-12-20T10:49:02;101785.00;;;11.40;71.48
83118;BME280;73000;51.784;4.660;2023-12-20T10:51:32;101763.94;;;11.29;71.41
83118;BME280;73000;51.784;4.660;2023-12-20T10:54:00;101769.50;;;11.39;71.20
83118;BME280;73000;51.784;4.660;2023-12-20T10:56:29;101769.25;;;11.46;71.48
83118;BME280;73000;51.784;4.660;2023-12-20T10:58:57;101773.41;;;11.38;71.50
83118;BME280;73000;51.784;4.660;2023-12-20T11:01:27;101760.66;;;11.37;71.90
83118;BME280;73000;51.784;4.660;2023-12-20T11:03:54;101756.25;;;11.41;71.16
83118;BME280;73000;51.784;4.660;2023-12-20T11:06:26;101739.09;;;11.49;72.08
83118;BME280;73000;51.784;4.660;2023-12-20T11:09:14;101753.75;;;11.50;72.18
83118;BME280;73000;51.784;4.660;2023-12-20T11:17:13;101737.41;;;11.43;70.92
83118;BME280;73000;51.784;4.660;2023-12-20T11:22:24;101729.47;;;11.62;71.27
83118;BME280;73000;51.784;4.660;2023-12-20T11:24:52;101729.19;;;11.73;71.32
83118;BME280;73000;51.784;4.660;2023-12-20T11:27:19;101723.63;;;11.73;70.75
83118;BME280;73000;51.784;4.660;2023-12-20T11:29:51;101730.59;;;11.86;70.71
83118;BME280;73000;51.784;4.660;2023-12-20T11:35:01;101735.56;;;11.74;70.38
83118;BME280;73000;51.784;4.660;2023-12-20T11:37:30;101727.53;;;11.77;70.04
83118;BME280;73000;51.784;4.660;2023-12-20T11:40:06;101723.13;;;11.86;70.52
83118;BME280;73000;51.784;4.660;2023-12-20T11:42:50;101714.25;;;11.79;70.30
83118;BME280;73000;51.784;4.660;2023-12-20T11:45:25;101705.91;;;11.99;69.85
83118;BME280;73000;51.784;4.660;2023-12-20T11:47:51;101704.81;;;12.05;69.38
83118;BME280;73000;51.784;4.660;2023-12-20T11:50:23;101687.63;;;12.03;69.25
83118;BME280;73000;51.784;4.660;2023-12-20T11:52:49;101687.06;;;12.21;69.22
83118;BME280;73000;51.784;4.660;2023-12-20T11:55:15;101692.00;;;12.49;68.80
83118;BME280;73000;51.784;4.660;2023-12-20T11:57:43;101697.81;;;12.48;68.44
83118;BME280;73000;51.784;4.660;2023-12-20T12:00:13;101692.28;;;12.33;68.01
83118;BME280;73000;51.784;4.660;2023-12-20T12:02:39;101694.78;;;12.49;67.73
83118;BME280;73000;51.784;4.660;2023-12-20T12:05:04;101687.59;;;12.43;68.94
83118;BME280;73000;51.784;4.660;2023-12-20T12:07:31;101688.97;;;12.36;68.61
83118;BME280;73000;51.784;4.660;2023-12-20T12:09:56;101693.69;;;12.30;69.13
83118;BME280;73000;51.784;4.660;2023-12-20T12:12:21;101692.88;;;12.20;68.49
83118;BME280;73000;51.784;4.660;2023-12-20T12:14:54;101689.00;;;12.21;69.02
83118;BME280;73000;51.784;4.660;2023-12-20T12:17:20;101691.53;;;12.12;68.83
83118;BME280;73000;51.784;4.660;2023-12-20T12:19:45;101700.38;;;12.24;69.58
83118;BME280;73000;51.784;4.660;2023-12-20T12:22:12;101697.03;;;12.42;69.44
83118;BME280;73000;51.784;4.660;2023-12-20T12:24:41;101686.47;;;12.44;68.16
83118;BME280;73000;51.784;4.660;2023-12-20T12:27:07;101684.56;;;12.30;69.16
83118;BME280;73000;51.784;4.660;2023-12-20T12:29:36;101686.50;;;12.29;68.93
83118;BME280;73000;51.784;4.660;2023-12-20T12:32:09;101682.34;;;12.27;69.19
83118;BME280;73000;51.784;4.660;2023-12-20T12:34:35;101676.25;;;12.20;69.74
83118;BME280;73000;51.784;4.660;2023-12-20T12:37:01;101678.75;;;12.11;70.07
83118;BME280;73000;51.784;4.660;2023-12-20T12:39:26;101684.31;;;12.01;69.55
83118;BME280;73000;51.784;4.660;2023-12-20T12:41:52;101669.59;;;11.91;70.38
83118;BME280;73000;51.784;4.660;2023-12-20T12:44:17;101659.91;;;12.13;70.02
83118;BME280;73000;51.784;4.660;2023-12-20T12:46:46;101668.19;;;12.23;69.66
83118;BME280;73000;51.784;4.660;2023-12-20T12:49:17;101653.78;;;12.11;69.64
83118;BME280;73000;51.784;4.660;2023-12-20T12:51:43;101657.66;;;12.15;69.06
83118;BME280;73000;51.784;4.660;2023-12-20T12:54:09;101668.19;;;12.18;69.41
83118;BME280;73000;51.784;4.660;2023-12-20T12:56:35;101651.00;;;12.21;69.90
83118;BME280;73000;51.784;4.660;2023-12-20T12:59:01;101651.56;;;12.08;69.20
83118;BME280;73000;51.784;4.660;2023-12-20T13:01:26;101650.19;;;12.11;69.33
83118;BME280;73000;51.784;4.660;2023-12-20T13:03:53;101641.03;;;12.15;69.58